createdAt,value
2023-04-12T00:02:14.298Z,99795.75
2023-04-12T00:06:17.332Z,99794.72
2023-04-12T00:10:21.314Z,99802.03
2023-04-12T00:14:23.879Z,99802.69
2023-04-12T00:18:27.317Z,99784.69
2023-04-12T00:22:29.948Z,99778.34
2023-04-12T00:26:31.939Z,99791.13
2023-04-12T00:30:34.376Z,99780.56
2023-04-12T00:34:36.434Z,99788.13
2023-04-12T00:38:38.434Z,99792.19
2023-04-12T00:42:40.470Z,99788.91
2023-04-12T00:46:42.625Z,99793.47
2023-04-12T00:50:45.056Z,99787.59
2023-04-12T00:54:47.308Z,99782.72
2023-04-12T00:58:49.629Z,99799.84
2023-04-12T01:02:53.141Z,99802.53
2023-04-12T01:07:24.561Z,99797.81
2023-04-12T01:11:33.360Z,99790.03
2023-04-12T01:15:44.495Z,99792.06
2023-04-12T01:20:14.357Z,99791.63
2023-04-12T01:24:37.781Z,99795.19
2023-04-12T01:28:43.634Z,99791.03
2023-04-12T01:32:57.719Z,99792.53
2023-04-12T01:37:02.451Z,99791.41
2023-04-12T01:41:05.726Z,99792.25
2023-04-12T01:45:08.322Z,99782.94
2023-04-12T01:49:12.942Z,99772.44
2023-04-12T01:53:25.548Z,99780.94
2023-04-12T01:57:28.120Z,99768.78
2023-04-12T02:01:31.074Z,99762.34
2023-04-12T02:05:34.111Z,99765.16
2023-04-12T02:09:38.052Z,99764.41
2023-04-12T02:13:40.470Z,99764.22
2023-04-12T02:17:42.466Z,99776.63
2023-04-12T02:21:45.735Z,99784.03
2023-04-12T02:25:48.428Z,99782.53
2023-04-12T02:29:51.950Z,99787.16
2023-04-12T02:33:54.245Z,99780.22
2023-04-12T02:37:56.487Z,99779.19
2023-04-12T02:42:02.623Z,99773.38
2023-04-12T02:46:05.395Z,99782.44
2023-04-12T02:50:14.735Z,99776.66
2023-04-12T02:54:27.035Z,99778.13
2023-04-12T02:58:33.696Z,99783.75
2023-04-12T03:02:36.226Z,99793.75
2023-04-12T03:06:52.360Z,99799.00
2023-04-12T03:10:58.082Z,99790.03
2023-04-12T03:15:01.816Z,99785.22
2023-04-12T03:19:06.812Z,99781.25
2023-04-12T03:23:09.349Z,99781.97
2023-04-12T03:27:15.342Z,99787.78
2023-04-12T03:31:21.099Z,99790.13
2023-04-12T03:35:23.473Z,99785.13
2023-04-12T03:39:27.125Z,99792.53
2023-04-12T03:43:35.778Z,99791.91
2023-04-12T03:47:40.735Z,99796.75
2023-04-12T03:51:43.891Z,99796.00
2023-04-12T03:55:46.188Z,99794.53
2023-04-12T03:59:48.173Z,99798.16
2023-04-12T04:03:54.252Z,99796.66
2023-04-12T04:08:02.319Z,99791.44
2023-04-12T04:12:09.894Z,99790.38
2023-04-12T04:16:15.358Z,99796.94
2023-04-12T04:20:18.827Z,99807.78
2023-04-12T04:24:25.254Z,99799.81
2023-04-12T04:28:30.578Z,99810.75
2023-04-12T04:32:34.065Z,99810.66
2023-04-12T04:36:38.188Z,99819.47
2023-04-12T04:40:41.296Z,99826.28
2023-04-12T04:44:45.095Z,99824.41
2023-04-12T04:48:49.158Z,99824.31
2023-04-12T04:52:51.265Z,99830.69
2023-04-12T04:56:53.998Z,99835.03
2023-04-12T05:00:57.662Z,99836.84
2023-04-12T05:05:02.428Z,99842.03
2023-04-12T05:09:08.089Z,99837.13
2023-04-12T05:13:15.369Z,99839.75
2023-04-12T05:17:17.365Z,99834.84
2023-04-12T05:21:19.880Z,99834.56
2023-04-12T05:25:22.563Z,99838.88
2023-04-12T05:29:34.414Z,99841.31
2023-04-12T05:33:37.448Z,99845.63
2023-04-12T05:37:39.556Z,99846.94
2023-04-12T05:41:41.596Z,99845.63
2023-04-12T05:45:43.764Z,99849.28
2023-04-12T05:49:46.052Z,99854.69
2023-04-12T05:53:48.080Z,99853.91
2023-04-12T05:57:51.493Z,99873.31
2023-04-12T06:01:56.176Z,99879.75
2023-04-12T06:05:59.303Z,99875.81
2023-04-12T06:10:01.462Z,99877.13
2023-04-12T06:14:03.545Z,99892.56
2023-04-12T06:18:07.578Z,99899.66
2023-04-12T06:22:09.734Z,99890.22
2023-04-12T06:26:13.456Z,99901.56
2023-04-12T06:30:15.877Z,99879.75
2023-04-12T06:34:18.108Z,99891.84
2023-04-12T06:38:20.846Z,99895.59
2023-04-12T06:42:22.941Z,99914.25
2023-04-12T06:46:28.901Z,99930.34
2023-04-12T06:50:30.974Z,99939.28
2023-04-12T06:54:36.309Z,99935.28
2023-04-12T06:58:38.451Z,99951.34
2023-04-12T07:02:40.799Z,99946.63
2023-04-12T07:06:42.955Z,99957.97
2023-04-12T07:10:44.996Z,99957.25
2023-04-12T07:14:46.986Z,99970.56
2023-04-12T07:18:49.103Z,99968.59
2023-04-12T07:22:51.467Z,99960.28
2023-04-12T07:26:54.896Z,99964.50
2023-04-12T07:30:57.074Z,99964.69
2023-04-12T07:34:59.293Z,99973.72
2023-04-12T07:39:01.349Z,99965.53
2023-04-12T07:43:03.399Z,99972.25
2023-04-12T07:47:05.591Z,99960.28
2023-04-12T07:51:07.572Z,99960.28
2023-04-12T07:55:10.177Z,99963.53
2023-04-12T07:59:12.492Z,99971.53
2023-04-12T08:03:17.027Z,99972.06
2023-04-12T08:07:19.950Z,99972.88
2023-04-12T08:11:22.230Z,99970.13
2023-04-12T08:15:24.548Z,99976.56
2023-04-12T08:19:27.531Z,99999.53
2023-04-12T08:23:29.998Z,100013.97
2023-04-12T08:27:31.578Z,99999.50
2023-04-12T08:31:34.289Z,99995.31
2023-04-12T08:35:36.405Z,99980.66
2023-04-12T08:39:38.366Z,99969.00
2023-04-12T08:43:44.445Z,99946.41
2023-04-12T08:47:46.808Z,99936.88
2023-04-12T08:51:49.413Z,99951.19
2023-04-12T08:55:51.968Z,99965.97
2023-04-12T08:59:54.934Z,99966.41
2023-04-12T09:03:57.539Z,99972.69
2023-04-12T09:08:00.160Z,99973.50
2023-04-12T09:12:10.518Z,99977.22
2023-04-12T09:16:12.698Z,99980.44
2023-04-12T09:20:18.095Z,99974.94
2023-04-12T09:24:24.059Z,99976.94
2023-04-12T09:28:28.020Z,99981.28
2023-04-12T09:32:30.241Z,99977.22
2023-04-12T09:36:38.590Z,99975.19
2023-04-12T09:40:40.673Z,99979.16
2023-04-12T09:44:42.837Z,99976.50
2023-04-12T09:48:52.895Z,99986.69
2023-04-12T09:52:57.342Z,99975.50
2023-04-12T09:57:01.080Z,99974.06
2023-04-12T10:01:04.872Z,99972.91
2023-04-12T10:05:07.505Z,99986.41
2023-04-12T10:09:10.271Z,99978.41
2023-04-12T10:13:13.834Z,99976.19
2023-04-12T10:17:19.065Z,99972.94
2023-04-12T10:21:22.802Z,99979.81
2023-04-12T10:25:27.231Z,99967.97
2023-04-12T10:29:30.297Z,99968.31
2023-04-12T10:33:32.603Z,99973.25
2023-04-12T10:38:06.075Z,99970.75
2023-04-12T10:42:17.206Z,99972.78
2023-04-12T10:46:39.083Z,99975.91
2023-04-12T10:50:42.171Z,99974.00
2023-04-12T10:54:44.660Z,99975.69
2023-04-12T10:58:48.925Z,99968.81
2023-04-12T11:03:07.849Z,99978.41
2023-04-12T11:07:11.959Z,99967.16
2023-04-12T11:11:20.362Z,99970.75
2023-04-12T11:15:27.058Z,99958.16
2023-04-12T11:19:57.865Z,99959.00
2023-04-12T11:24:00.356Z,99954.22
2023-04-12T11:28:04.140Z,99946.06
2023-04-12T11:32:14.189Z,99935.38
2023-04-12T11:36:17.694Z,99932.84
2023-04-12T11:40:22.672Z,99935.38
2023-04-12T11:44:25.289Z,99936.84
2023-04-12T11:48:28.651Z,99927.72
2023-04-12T11:52:32.759Z,99924.81
2023-04-12T11:56:34.820Z,99919.50
2023-04-12T12:00:37.542Z,99917.03
2023-04-12T12:04:48.928Z,99905.16
2023-04-12T12:08:52.319Z,99905.34
2023-04-12T12:12:58.036Z,99900.00
2023-04-12T12:17:00.604Z,99882.84
2023-04-12T12:21:02.894Z,99877.97
2023-04-12T12:25:06.095Z,99865.97
2023-04-12T12:29:16.596Z,99863.53
2023-04-12T12:33:26.832Z,99859.06
2023-04-12T12:37:37.623Z,99859.88
2023-04-12T12:41:41.061Z,99856.06
2023-04-12T12:45:43.654Z,99855.41
2023-04-12T12:49:45.993Z,99848.56
2023-04-12T12:53:48.598Z,99843.94
2023-04-12T12:58:07.553Z,99847.94
2023-04-12T13:02:10.693Z,99840.19
2023-04-12T13:06:13.093Z,99836.38
2023-04-12T13:10:15.308Z,99831.34
2023-04-12T13:14:17.228Z,99830.94
2023-04-12T13:18:20.131Z,99828.59
2023-04-12T13:22:22.611Z,99827.31
2023-04-12T13:26:25.781Z,99830.50
2023-04-12T13:30:28.283Z,99827.22
2023-04-12T13:34:31.526Z,99821.69
2023-04-12T13:38:33.613Z,99819.22
2023-04-12T13:42:35.892Z,99820.75
2023-04-12T13:46:38.008Z,99819.03
2023-04-12T13:50:40.167Z,99811.25
2023-04-12T13:54:43.438Z,99801.97
2023-04-12T13:58:45.774Z,99805.06
2023-04-12T14:02:48.077Z,99799.34
2023-04-12T14:06:50.119Z,99797.38
2023-04-12T14:10:52.572Z,99793.91
2023-04-12T14:14:54.806Z,99790.13
2023-04-12T14:18:57.149Z,99800.72
2023-04-12T14:22:59.428Z,99793.31
2023-04-12T14:27:02.464Z,99791.44
2023-04-12T14:31:06.566Z,99790.63
2023-04-12T14:35:09.752Z,99789.41
2023-04-12T14:39:13.903Z,99782.13
2023-04-12T14:43:17.071Z,99789.59
2023-04-12T14:47:19.340Z,99794.56
2023-04-12T14:51:21.842Z,99788.00
2023-04-12T14:55:24.200Z,99793.66
2023-04-12T14:59:27.508Z,99794.94
2023-04-12T15:03:31.577Z,99798.78
2023-04-12T15:07:35.093Z,99797.06
2023-04-12T15:11:38.214Z,99788.31
2023-04-12T15:15:41.794Z,99783.47
2023-04-12T15:19:44.146Z,99790.88
2023-04-12T15:23:47.452Z,99783.84
2023-04-12T15:27:49.586Z,99792.72
2023-04-12T15:31:51.801Z,99783.69
2023-04-12T15:35:56.603Z,99785.44
2023-04-12T15:39:58.726Z,99781.09
2023-04-12T15:44:01.267Z,99777.38
2023-04-12T15:48:03.676Z,99781.28
2023-04-12T15:52:05.928Z,99770.47
2023-04-12T15:56:09.254Z,99773.03
2023-04-12T16:00:30.789Z,99773.53
2023-04-12T16:04:33.578Z,99774.31
2023-04-12T16:08:36.164Z,99772.16
2023-04-12T16:12:38.386Z,99772.03
2023-04-12T16:16:40.688Z,99773.56
2023-04-12T16:20:43.032Z,99766.69
2023-04-12T16:24:45.205Z,99767.50
2023-04-12T16:28:51.816Z,99763.00
2023-04-12T16:32:54.730Z,99768.31
2023-04-12T16:36:57.609Z,99763.63
2023-04-12T16:41:00.148Z,99768.34
2023-04-12T16:45:04.526Z,99775.50
2023-04-12T16:49:06.771Z,99766.06
2023-04-12T16:53:09.044Z,99768.72
2023-04-12T16:57:11.803Z,99783.25
2023-04-12T17:01:17.256Z,99779.22
2023-04-12T17:05:21.900Z,99776.41
2023-04-12T17:09:24.084Z,99783.88
2023-04-12T17:13:26.762Z,99779.31
2023-04-12T17:17:28.886Z,99785.06
2023-04-12T17:21:40.849Z,99789.25
2023-04-12T17:25:43.370Z,99792.63
2023-04-12T17:29:45.525Z,99785.91
2023-04-12T17:33:48.087Z,99788.06
2023-04-12T17:37:51.365Z,99796.53
2023-04-12T17:41:53.697Z,99784.44
2023-04-12T17:45:56.020Z,99787.41
2023-04-12T17:49:58.173Z,99791.47
2023-04-12T17:54:00.841Z,99789.78
2023-04-12T17:58:03.480Z,99796.47
2023-04-12T18:02:06.087Z,99799.66
2023-04-12T18:06:08.647Z,99797.94
2023-04-12T18:10:15.397Z,99797.25
2023-04-12T18:14:17.800Z,99801.38
2023-04-12T18:18:20.320Z,99798.16
2023-04-12T18:22:22.820Z,99803.28
2023-04-12T18:26:25.138Z,99799.66
2023-04-12T18:30:27.645Z,99807.06
2023-04-12T18:34:31.065Z,99809.41
2023-04-12T18:38:35.703Z,99807.63
2023-04-12T18:42:38.040Z,99805.06
2023-04-12T18:46:41.053Z,99812.34
2023-04-12T18:50:44.633Z,99813.44
2023-04-12T18:54:48.193Z,99803.91
2023-04-12T18:58:55.695Z,99805.00
2023-04-12T19:02:58.469Z,99795.47
2023-04-12T19:07:00.511Z,99789.19
2023-04-12T19:11:02.779Z,99788.38
2023-04-12T19:15:07.147Z,99800.03
2023-04-12T19:19:09.536Z,99795.16
2023-04-12T19:23:11.706Z,99788.59
2023-04-12T19:27:14.330Z,99766.75
2023-04-12T19:31:16.498Z,99757.75
2023-04-12T19:35:19.077Z,99753.97
2023-04-12T19:39:22.779Z,99742.19
2023-04-12T19:43:25.841Z,99728.03
2023-04-12T19:47:27.976Z,99701.28
2023-04-12T19:51:31.386Z,99703.81
2023-04-12T19:55:33.509Z,99684.09
2023-04-12T19:59:36.754Z,99674.56
2023-04-12T20:03:40.558Z,99674.34
2023-04-12T20:07:45.895Z,99672.53
2023-04-12T20:11:48.246Z,99665.94
2023-04-12T20:15:51.093Z,99651.47
2023-04-12T20:19:55.331Z,99652.38
2023-04-12T20:23:59.168Z,99642.97
2023-04-12T20:28:02.745Z,99653.03
2023-04-12T20:32:05.015Z,99653.53
2023-04-12T20:36:07.416Z,99649.97
2023-04-12T20:40:10.068Z,99651.25
2023-04-12T20:44:12.335Z,99636.41
2023-04-12T20:48:14.428Z,99633.16
2023-04-12T20:52:18.492Z,99618.66
2023-04-12T20:56:20.488Z,99613.75
2023-04-12T21:00:23.539Z,99617.41
2023-04-12T21:04:27.845Z,99615.69
2023-04-12T21:08:33.741Z,99613.56
2023-04-12T21:12:35.742Z,99615.72
2023-04-12T21:16:38.703Z,99609.69
2023-04-12T21:20:41.032Z,99606.63
2023-04-12T21:24:43.308Z,99601.84
2023-04-12T21:28:46.097Z,99601.81
2023-04-12T21:32:48.248Z,99601.56
2023-04-12T21:36:50.850Z,99604.34
2023-04-12T21:40:57.195Z,99604.97
2023-04-12T21:44:59.152Z,99600.78
2023-04-12T21:49:01.204Z,99610.53
2023-04-12T21:53:03.395Z,99616.78
2023-04-12T21:57:06.153Z,99611.13
2023-04-12T22:01:09.426Z,99610.53
2023-04-12T22:05:11.794Z,99613.41
2023-04-12T22:09:13.570Z,99601.88
2023-04-12T22:13:16.020Z,99604.78
2023-04-12T22:17:19.320Z,99604.38
2023-04-12T22:21:22.833Z,99598.50
2023-04-12T22:25:24.924Z,99600.53
2023-04-12T22:29:26.940Z,99597.75
2023-04-12T22:33:29.938Z,99585.88
2023-04-12T22:37:33.485Z,99594.34
2023-04-12T22:41:35.531Z,99587.19
2023-04-12T22:45:39.401Z,99580.69
2023-04-12T22:49:46.311Z,99574.22
2023-04-12T22:53:50.279Z,99571.25
2023-04-12T22:57:53.123Z,99558.22
2023-04-12T23:01:55.182Z,99559.25
2023-04-12T23:05:57.344Z,99549.47
2023-04-12T23:09:59.409Z,99546.13
2023-04-12T23:14:02.501Z,99543.97
2023-04-12T23:18:04.618Z,99542.38
2023-04-12T23:22:06.671Z,99537.63
2023-04-12T23:26:10.785Z,99537.63
2023-04-12T23:30:14.597Z,99537.88
2023-04-12T23:34:18.840Z,99536.44
2023-04-12T23:38:25.954Z,99533.91
2023-04-12T23:42:28.573Z,99530.09
2023-04-12T23:46:30.790Z,99517.31
2023-04-12T23:50:32.848Z,99512.97
2023-04-12T23:54:34.539Z,99501.53
2023-04-12T23:58:37.917Z,99497.13
